Time;durP1;ratioP1;P1;durP2;ratioP2;P2;SDS_P1;SDS_P2;PMS_P1;PMS_P2;Temp;Humidity;BMP_temperature;BMP_pressure;BME280_temperature;BME280_humidity;BME280_pressure;Samples;Min_cycle;Max_cycle;Signal;HPM_P1;HPM_P2
2024/02/27 00:01:13;;;;;;;30.05;12.57;;;;;;;-141.50;100.00;63355.56;5007988;28;20057;-84
2024/02/27 00:03:40;;;;;;;33.72;13.63;;;;;;;-141.50;100.00;63355.56;5008300;28;20050;-85
2024/02/27 00:06:07;;;;;;;33.95;13.75;;;;;;;-141.50;100.00;63355.56;5007793;28;20322;-83
2024/02/27 00:08:34;;;;;;;33.25;13.75;;;;;;;-141.50;100.00;63355.56;5006513;28;20057;-84
2024/02/27 00:11:02;;;;;;;30.20;13.45;;;;;;;-141.50;100.00;63355.56;4989059;28;20041;-85
2024/02/27 00:13:29;;;;;;;31.48;12.52;;;;;;;-141.50;100.00;63355.56;5010011;28;20077;-84
2024/02/27 00:15:56;;;;;;;32.42;14.00;;;;;;;-141.50;100.00;63355.56;5019320;28;20061;-87
2024/02/27 00:18:22;;;;;;;27.05;12.40;;;;;;;-141.50;100.00;63355.56;4992485;28;20054;-87
2024/02/27 00:20:50;;;;;;;27.75;12.98;;;;;;;-141.50;100.00;63355.56;5026521;28;20048;-84
2024/02/27 00:23:20;;;;;;;31.33;13.45;;;;;;;-141.50;100.00;63355.56;5017374;28;20054;-86
2024/02/27 00:25:47;;;;;;;31.52;13.32;;;;;;;-141.50;100.00;63355.56;5002123;28;20058;-83
2024/02/27 00:28:14;;;;;;;35.45;13.65;;;;;;;-141.50;100.00;63355.56;4994206;28;20050;-86
2024/02/27 00:30:42;;;;;;;35.00;14.40;;;;;;;-141.50;100.00;63355.56;4993211;28;20423;-85
2024/02/27 00:33:08;;;;;;;31.38;14.23;;;;;;;-141.50;100.00;63355.56;4995389;28;20049;-85
2024/02/27 00:35:35;;;;;;;28.25;13.10;;;;;;;-141.50;100.00;63355.56;5007439;28;20153;-85
2024/02/27 00:38:02;;;;;;;28.75;13.27;;;;;;;-141.50;100.00;63355.56;5009612;28;20054;-84
2024/02/27 00:40:29;;;;;;;30.85;13.40;;;;;;;-141.50;100.00;63355.56;4992577;28;20539;-84
2024/02/27 00:42:56;;;;;;;26.58;12.98;;;;;;;-141.50;100.00;63355.56;5009224;28;20050;-85
2024/02/27 00:45:23;;;;;;;30.25;13.50;;;;;;;-141.50;100.00;63355.56;4991736;28;20068;-86
2024/02/27 00:47:49;;;;;;;34.55;14.40;;;;;;;-141.50;100.00;63355.56;4989213;28;20506;-84
2024/02/27 00:50:16;;;;;;;33.92;15.38;;;;;;;-141.50;100.00;63355.56;5008058;28;20046;-85
2024/02/27 00:52:44;;;;;;;32.03;14.45;;;;;;;-141.50;100.00;63355.56;5008796;28;20054;-86
2024/02/27 00:55:10;;;;;;;36.38;15.82;;;;;;;-141.50;100.00;63355.56;4998595;28;20050;-85
2024/02/27 00:57:37;;;;;;;37.60;16.08;;;;;;;-141.50;100.00;63355.56;5009402;28;20095;-83
2024/02/27 01:00:08;;;;;;;34.08;14.27;;;;;;;-141.50;100.00;63355.56;5006822;28;20054;-84
2024/02/27 01:02:36;;;;;;;38.15;15.35;;;;;;;-141.50;100.00;63355.56;4994635;28;20097;-84
2024/02/27 01:05:04;;;;;;;38.97;14.70;;;;;;;-141.50;100.00;63355.56;4987249;28;20053;-84
2024/02/27 01:07:32;;;;;;;32.30;15.38;;;;;;;-141.50;100.00;63355.56;4987677;28;20133;-84
2024/02/27 01:09:58;;;;;;;34.03;14.02;;;;;;;-141.50;100.00;63355.56;5008423;28;20097;-86
2024/02/27 01:12:27;;;;;;;32.50;14.57;;;;;;;-141.50;100.00;63355.56;4992074;28;20068;-83
2024/02/27 01:14:54;;;;;;;32.30;14.38;;;;;;;-141.50;100.00;63355.56;4993578;28;20073;-87
2024/02/27 01:17:21;;;;;;;32.35;14.25;;;;;;;-141.50;100.00;63355.56;5008692;28;20054;-84
2024/02/27 01:19:48;;;;;;;34.80;14.63;;;;;;;-141.50;100.00;63355.56;4989491;28;20057;-85
2024/02/27 01:22:29;;;;;;;35.60;14.88;;;;;;;-141.50;100.00;63355.56;4991663;28;20041;-85
2024/02/27 01:24:57;;;;;;;32.80;14.45;;;;;;;-141.50;100.00;63355.56;5013220;28;20054;-85
2024/02/27 01:27:24;;;;;;;40.22;16.27;;;;;;;-141.50;100.00;63355.56;5014419;28;20093;-83
2024/02/27 01:29:51;;;;;;;30.95;13.63;;;;;;;-141.50;100.00;63355.56;5015765;28;20118;-86
2024/02/27 01:32:19;;;;;;;34.35;14.88;;;;;;;-141.50;100.00;63355.56;5023315;28;20057;-85
2024/02/27 01:34:46;;;;;;;35.65;14.90;;;;;;;-141.50;100.00;63355.56;4992259;28;20058;-87
2024/02/27 01:37:13;;;;;;;29.13;13.55;;;;;;;-141.50;100.00;63355.56;5020552;28;20057;-86
2024/02/27 01:39:40;;;;;;;35.63;14.50;;;;;;;-141.50;100.00;63355.56;5002277;28;20081;-84
2024/02/27 01:42:07;;;;;;;30.58;14.70;;;;;;;-141.50;100.00;63355.56;5018197;28;20045;-86
2024/02/27 01:44:34;;;;;;;30.60;14.07;;;;;;;-141.50;100.00;63355.56;5016234;28;20504;-86
2024/02/27 01:47:03;;;;;;;31.15;14.35;;;;;;;-141.50;100.00;63355.56;4995429;28;20122;-85
2024/02/27 01:49:33;;;;;;;29.23;13.98;;;;;;;-141.50;100.00;63355.56;4995538;28;20096;-83
2024/02/27 01:51:59;;;;;;;36.67;14.20;;;;;;;-141.50;100.00;63355.56;4994422;28;20065;-84
2024/02/27 01:54:26;;;;;;;33.80;14.10;;;;;;;-141.50;100.00;63355.56;4980827;28;20126;-83
2024/02/27 01:56:56;;;;;;;31.05;14.15;;;;;;;-141.50;100.00;63355.56;5002186;28;20072;-84
2024/02/27 01:59:23;;;;;;;37.97;15.70;;;;;;;-141.50;100.00;63355.56;4992203;28;20074;-83
2024/02/27 02:01:52;;;;;;;40.10;14.48;;;;;;;-141.50;100.00;63355.56;5012627;28;20140;-83
2024/02/27 02:04:19;;;;;;;31.25;13.68;;;;;;;-141.50;100.00;63355.56;4995432;28;20057;-84
2024/02/27 02:06:46;;;;;;;32.10;14.52;;;;;;;-141.50;100.00;63355.56;4995384;28;20050;-85
2024/02/27 02:09:13;;;;;;;36.85;13.80;;;;;;;-141.50;100.00;63355.56;4995520;28;20493;-85
2024/02/27 02:11:42;;;;;;;31.65;13.57;;;;;;;-141.50;100.00;63355.56;5028419;28;20061;-85
2024/02/27 02:14:09;;;;;;;35.38;13.45;;;;;;;-141.50;100.00;63355.56;5014139;28;20056;-87
2024/02/27 02:16:35;;;;;;;31.42;14.40;;;;;;;-141.50;100.00;63355.56;5003972;28;20427;-85
2024/02/27 02:19:02;;;;;;;29.98;13.25;;;;;;;-141.50;100.00;63355.56;5017718;28;20042;-84
2024/02/27 02:21:29;;;;;;;30.23;12.57;;;;;;;-141.50;100.00;63355.56;4998108;28;20046;-84
2024/02/27 02:23:59;;;;;;;31.73;13.27;;;;;;;-141.50;100.00;63355.56;5010456;28;20181;-85
2024/02/27 02:26:29;;;;;;;35.05;13.63;;;;;;;-141.50;100.00;63355.56;5010046;28;20472;-85
2024/02/27 02:28:56;;;;;;;29.40;13.45;;;;;;;-141.50;100.00;63355.56;4996332;28;20062;-87
2024/02/27 02:31:23;;;;;;;31.80;14.02;;;;;;;-141.50;100.00;63355.56;4982835;28;20057;-85
2024/02/27 02:33:50;;;;;;;30.30;14.10;;;;;;;-141.50;100.00;63355.56;5012215;28;20042;-85
2024/02/27 02:36:18;;;;;;;28.80;12.85;;;;;;;-141.50;100.00;63355.56;5012866;28;20056;-85
2024/02/27 02:38:45;;;;;;;29.13;14.38;;;;;;;-141.50;100.00;63355.56;5008626;28;20085;-85
2024/02/27 02:41:12;;;;;;;32.50;15.02;;;;;;;-141.50;100.00;63355.56;4994348;28;20050;-84
2024/02/27 02:43:38;;;;;;;31.13;15.38;;;;;;;-141.50;100.00;63355.56;5010260;28;20456;-85
2024/02/27 02:46:08;;;;;;;35.92;15.52;;;;;;;-141.50;100.00;63355.56;5011779;28;20137;-83
2024/02/27 02:48:36;;;;;;;31.73;15.30;;;;;;;-141.50;100.00;63355.56;5011176;28;20593;-84
2024/02/27 02:51:06;;;;;;;40.45;15.63;;;;;;;-141.50;100.00;63355.56;5010516;28;20038;-83
2024/02/27 02:53:33;;;;;;;36.38;16.00;;;;;;;-141.50;100.00;63355.56;5010673;28;20137;-87
2024/02/27 02:55:59;;;;;;;37.65;16.10;;;;;;;-141.50;100.00;63355.56;4993375;28;20050;-84
2024/02/27 02:58:26;;;;;;;33.63;15.98;;;;;;;-141.50;100.00;63355.56;5009257;28;20050;-83
2024/02/27 03:00:53;;;;;;;37.65;17.45;;;;;;;-141.50;100.00;63355.56;5017677;28;20058;-86
2024/02/27 03:03:20;;;;;;;41.58;16.25;;;;;;;-141.50;100.00;63355.56;5025969;28;20050;-85
2024/02/27 03:05:47;;;;;;;42.78;17.33;;;;;;;-141.50;100.00;63355.56;5018655;28;20057;-85
2024/02/27 03:08:14;;;;;;;37.78;17.02;;;;;;;-141.50;100.00;63355.56;5005145;28;20060;-84
2024/02/27 03:10:40;;;;;;;36.88;17.30;;;;;;;-141.50;100.00;63355.56;4977034;28;20689;-85
2024/02/27 03:13:08;;;;;;;36.55;16.58;;;;;;;-141.50;100.00;63355.56;4997871;28;20051;-88
2024/02/27 03:15:35;;;;;;;50.13;18.55;;;;;;;-141.50;100.00;63355.56;5014233;28;20080;-87
2024/02/27 03:18:01;;;;;;;39.75;17.90;;;;;;;-141.50;100.00;63355.56;5014356;28;20065;-87
2024/02/27 03:20:28;;;;;;;42.53;18.52;;;;;;;-141.50;100.00;63355.56;5014480;28;20132;-86
2024/02/27 03:22:55;;;;;;;46.72;17.90;;;;;;;-141.50;100.00;63355.56;5014501;28;20124;-86
2024/02/27 03:25:22;;;;;;;46.83;19.92;;;;;;;-141.50;100.00;63355.56;4996912;28;20565;-85
2024/02/27 03:27:49;;;;;;;48.80;19.90;;;;;;;-141.50;100.00;63355.56;4980683;28;20065;-86
2024/02/27 03:30:18;;;;;;;45.38;19.77;;;;;;;-141.50;100.00;63355.56;5015342;28;20746;-86
2024/02/27 03:32:46;;;;;;;43.53;19.20;;;;;;;-141.50;100.00;63355.56;4995353;28;20049;-85
2024/02/27 03:35:13;;;;;;;40.85;18.85;;;;;;;-141.50;100.00;63355.56;4996222;28;20046;-85
2024/02/27 03:37:39;;;;;;;45.88;19.60;;;;;;;-141.50;100.00;63355.56;5010203;28;20049;-84
2024/02/27 03:40:07;;;;;;;50.92;21.33;;;;;;;-141.50;100.00;63355.56;4992752;28;20133;-84
2024/02/27 03:42:34;;;;;;;47.60;20.70;;;;;;;-141.50;100.00;63355.56;5010692;28;20070;-82
2024/02/27 03:45:01;;;;;;;58.63;21.23;;;;;;;-141.50;100.00;63355.56;4999739;28;20045;-87
2024/02/27 03:47:28;;;;;;;50.42;20.23;;;;;;;-141.50;100.00;63355.56;4995002;28;20537;-86
2024/02/27 03:49:55;;;;;;;57.88;22.42;;;;;;;-141.50;100.00;63355.56;4979045;28;20107;-84
2024/02/27 03:52:22;;;;;;;54.50;21.80;;;;;;;-141.50;100.00;63355.56;4995658;28;20190;-87
2024/02/27 03:54:48;;;;;;;54.58;22.30;;;;;;;-141.50;100.00;63355.56;5012512;28;20148;-86
2024/02/27 03:57:15;;;;;;;59.55;22.75;;;;;;;-141.50;100.00;63355.56;5014117;28;20104;-85
2024/02/27 03:59:42;;;;;;;53.22;21.85;;;;;;;-141.50;100.00;63355.56;4994623;28;20553;-86
2024/02/27 04:02:09;;;;;;;54.47;22.05;;;;;;;-141.50;100.00;63355.56;5003212;28;20022;-83
2024/02/27 04:04:35;;;;;;;55.85;22.15;;;;;;;-141.50;100.00;63355.56;5022843;28;20050;-86
2024/02/27 04:07:02;;;;;;;62.58;23.90;;;;;;;-141.50;100.00;63355.56;4987258;28;20052;-87
2024/02/27 04:09:29;;;;;;;60.53;23.20;;;;;;;-141.50;100.00;63355.56;5011713;28;20092;-84
2024/02/27 04:11:56;;;;;;;56.25;22.27;;;;;;;-141.50;100.00;63355.56;5012156;28;20062;-86
2024/02/27 04:14:23;;;;;;;57.33;24.00;;;;;;;-141.50;100.00;63355.56;4992644;28;20108;-86
2024/02/27 04:16:50;;;;;;;56.92;21.20;;;;;;;-141.50;100.00;63355.56;5009686;28;20196;-84
2024/02/27 04:19:16;;;;;;;64.32;24.70;;;;;;;-141.50;100.00;63355.56;4979417;28;20050;-87
2024/02/27 04:21:43;;;;;;;72.45;25.17;;;;;;;-141.50;100.00;63355.56;4982353;28;20389;-86
2024/02/27 04:24:13;;;;;;;71.65;25.55;;;;;;;-141.50;100.00;63355.56;5011573;28;20042;-86
2024/02/27 04:26:39;;;;;;;66.50;24.42;;;;;;;-141.50;100.00;63355.56;4993110;28;20050;-84
2024/02/27 04:29:06;;;;;;;64.68;24.20;;;;;;;-141.50;100.00;63355.56;4994226;28;20120;-87
2024/02/27 04:31:34;;;;;;;66.65;25.63;;;;;;;-141.50;100.00;63355.56;4992993;28;20081;-85
2024/02/27 04:34:01;;;;;;;78.45;26.17;;;;;;;-141.50;100.00;63355.56;5024334;28;20045;-86
2024/02/27 04:36:28;;;;;;;64.47;25.17;;;;;;;-141.50;100.00;63355.56;5002032;28;20412;-86
2024/02/27 04:38:55;;;;;;;69.70;25.10;;;;;;;-141.50;100.00;63355.56;5015479;28;20401;-88
2024/02/27 04:41:22;;;;;;;75.30;26.75;;;;;;;-141.50;100.00;63355.56;4993632;28;20081;-86
2024/02/27 04:43:49;;;;;;;68.45;25.00;;;;;;;-141.50;100.00;63355.56;4995263;28;20048;-87
2024/02/27 04:50:18;;;;;;;70.43;25.60;;;;;;;-141.50;100.00;63355.56;4836326;28;20109;-86
2024/02/27 04:52:45;;;;;;;68.93;26.80;;;;;;;-141.50;100.00;63355.56;4943374;28;20054;-85
2024/02/27 04:55:12;;;;;;;78.18;28.38;;;;;;;-141.50;100.00;63355.56;5007763;28;20142;-85
2024/02/27 04:57:39;;;;;;;72.20;26.67;;;;;;;-141.50;100.00;63355.56;4988915;28;20056;-86
2024/02/27 05:00:09;;;;;;;70.63;26.38;;;;;;;-141.50;100.00;63355.56;5001649;28;20101;-85
2024/02/27 05:02:37;;;;;;;71.90;26.80;;;;;;;-141.50;100.00;63355.56;4991576;28;20120;-85
2024/02/27 05:05:04;;;;;;;76.47;27.00;;;;;;;-141.50;100.00;63355.56;4989474;28;20049;-86
2024/02/27 05:07:31;;;;;;;80.72;28.13;;;;;;;-141.50;100.00;63355.56;4997602;28;20070;-85
2024/02/27 05:09:59;;;;;;;83.07;28.17;;;;;;;-141.50;100.00;63355.56;4986712;28;20141;-85
2024/02/27 05:12:26;;;;;;;74.57;26.55;;;;;;;-141.50;100.00;63355.56;5007090;28;20121;-86
2024/02/27 05:14:52;;;;;;;73.60;27.13;;;;;;;-141.50;100.00;63355.56;4988270;28;20124;-85
2024/02/27 05:17:19;;;;;;;81.82;28.88;;;;;;;-141.50;100.00;63355.56;5007403;28;20056;-85
2024/02/27 05:19:48;;;;;;;73.03;27.75;;;;;;;-141.50;100.00;63355.56;5005181;28;20550;-86
2024/02/27 05:22:17;;;;;;;79.25;27.63;;;;;;;-141.50;100.00;63355.56;4990029;28;20054;-87
2024/02/27 05:24:46;;;;;;;71.60;26.92;;;;;;;-141.50;100.00;63355.56;4988072;28;20662;-85
2024/02/27 05:27:13;;;;;;;79.40;27.23;;;;;;;-141.50;100.00;63355.56;4991576;28;20073;-83
2024/02/27 05:29:40;;;;;;;80.28;28.30;;;;;;;-141.50;100.00;63355.56;4991612;28;20104;-83
2024/02/27 05:32:08;;;;;;;78.97;28.05;;;;;;;-141.50;100.00;63355.56;5010606;28;20063;-83
2024/02/27 05:34:35;;;;;;;77.97;28.90;;;;;;;-141.50;100.00;63355.56;4990898;28;20054;-83
2024/02/27 05:37:02;;;;;;;76.85;27.23;;;;;;;-141.50;100.00;63355.56;5007820;28;20692;-83
2024/02/27 05:39:28;;;;;;;81.68;28.52;;;;;;;-141.50;100.00;63355.56;5008587;28;20500;-86
2024/02/27 05:41:55;;;;;;;82.70;29.35;;;;;;;-141.50;100.00;63355.56;5006817;28;20054;-88
2024/02/27 05:44:22;;;;;;;82.93;28.77;;;;;;;-141.50;100.00;63355.56;4990379;28;20064;-86
2024/02/27 05:46:49;;;;;;;83.68;28.63;;;;;;;-141.50;100.00;63355.56;4996793;28;20050;-87
2024/02/27 05:49:16;;;;;;;86.47;28.17;;;;;;;-141.50;100.00;63355.56;5003538;28;20269;-85
2024/02/27 05:51:43;;;;;;;78.43;28.80;;;;;;;-141.50;100.00;63355.56;5014102;28;20538;-86
2024/02/27 05:54:10;;;;;;;80.40;29.23;;;;;;;-141.50;100.00;63355.56;4991949;28;20073;-87
2024/02/27 05:56:37;;;;;;;82.97;28.13;;;;;;;-141.50;100.00;63355.56;4992076;28;20045;-84
2024/02/27 05:59:04;;;;;;;81.20;28.77;;;;;;;-141.50;100.00;63355.56;4991099;28;20046;-87
2024/02/27 06:01:33;;;;;;;80.63;28.58;;;;;;;-141.50;100.00;63355.56;4991907;28;20112;-84
2024/02/27 06:04:00;;;;;;;77.78;28.80;;;;;;;-141.50;100.00;63355.56;4980414;28;20050;-87
2024/02/27 06:06:26;;;;;;;78.13;28.35;;;;;;;-141.50;100.00;63355.56;5004142;28;20052;-84
2024/02/27 06:08:53;;;;;;;89.40;29.63;;;;;;;-141.50;100.00;63355.56;5018040;28;20104;-85
2024/02/27 06:11:20;;;;;;;83.93;28.48;;;;;;;-141.50;100.00;63355.56;4999934;28;20069;-83
2024/02/27 06:13:47;;;;;;;87.05;28.90;;;;;;;-141.50;100.00;63355.56;4996524;28;20137;-83
2024/02/27 06:16:14;;;;;;;91.45;29.80;;;;;;;-141.50;100.00;63355.56;5017676;28;20046;-84
2024/02/27 06:18:42;;;;;;;81.85;27.67;;;;;;;-141.50;100.00;63355.56;5016268;28;20104;-84
2024/02/27 06:23:58;;;;;;;79.53;26.30;;;;;;;-141.50;100.00;63355.56;5015504;28;20568;-84
2024/02/27 06:26:26;;;;;;;84.70;27.45;;;;;;;-141.50;100.00;63355.56;4998578;28;20104;-83
2024/02/27 06:28:53;;;;;;;73.93;26.50;;;;;;;-141.50;100.00;63355.56;4997896;28;20042;-83
2024/02/27 06:31:20;;;;;;;73.90;26.65;;;;;;;-141.50;100.00;63355.56;5016583;28;20050;-83
2024/02/27 06:33:47;;;;;;;75.05;26.00;;;;;;;-141.50;100.00;63355.56;4991911;28;20084;-82
2024/02/27 06:36:13;;;;;;;83.10;28.40;;;;;;;-141.50;100.00;63355.56;5013792;28;20060;-82
2024/02/27 06:38:41;;;;;;;86.95;28.58;;;;;;;-141.50;100.00;63355.56;4991272;28;20077;-82
2024/02/27 06:41:08;;;;;;;76.00;26.90;;;;;;;-141.50;100.00;63355.56;4995012;28;20211;-82
2024/02/27 06:43:34;;;;;;;77.80;27.30;;;;;;;-141.50;100.00;63355.56;5013405;28;20081;-83
2024/02/27 06:46:03;;;;;;;84.70;27.20;;;;;;;-141.50;100.00;63355.56;5011884;28;20041;-83
2024/02/27 06:48:30;;;;;;;71.45;26.15;;;;;;;-141.50;100.00;63355.56;4998787;28;20043;-83
2024/02/27 06:50:58;;;;;;;73.72;26.25;;;;;;;-141.50;100.00;63355.56;5007233;28;20052;-84
2024/02/27 06:53:25;;;;;;;71.65;24.75;;;;;;;-141.50;100.00;63355.56;5011509;28;20458;-82
2024/02/27 06:55:51;;;;;;;75.53;25.65;;;;;;;-141.50;100.00;63355.56;4999213;28;20058;-83
2024/02/27 06:58:18;;;;;;;70.82;25.42;;;;;;;-141.50;100.00;63355.56;4999444;28;20054;-85
2024/02/27 07:00:45;;;;;;;68.97;25.40;;;;;;;-141.50;100.00;63355.56;5000704;28;20159;-83
2024/02/27 07:03:12;;;;;;;83.50;26.65;;;;;;;-141.50;100.00;63355.56;5003953;28;20439;-83
2024/02/27 07:05:39;;;;;;;71.05;24.40;;;;;;;-141.50;100.00;63355.56;4995915;28;20074;-82
2024/02/27 07:08:19;;;;;;;80.05;25.17;;;;;;;-141.50;100.00;63355.56;5002799;28;20058;-83
2024/02/27 07:10:46;;;;;;;69.57;25.90;;;;;;;-141.50;100.00;63355.56;4998293;28;20085;-84
2024/02/27 07:13:12;;;;;;;75.90;24.52;;;;;;;-141.50;100.00;63355.56;5016059;28;20050;-84
2024/02/27 07:15:41;;;;;;;71.28;24.35;;;;;;;-141.50;100.00;63355.56;4997553;28;20058;-81
2024/02/27 07:18:09;;;;;;;73.53;24.20;;;;;;;-141.50;100.00;63355.56;4995482;28;20484;-84
2024/02/27 07:20:36;;;;;;;70.72;24.55;;;;;;;-141.50;100.00;63355.56;5013170;28;20145;-84
2024/02/27 07:23:03;;;;;;;68.22;23.45;;;;;;;-141.50;100.00;63355.56;4994504;28;20038;-83
2024/02/27 07:25:30;;;;;;;71.80;24.42;;;;;;;-141.50;100.00;63355.56;4991336;28;20062;-83
2024/02/27 07:27:56;;;;;;;64.10;24.13;;;;;;;-141.50;100.00;63355.56;4999212;28;20054;-83
2024/02/27 07:30:26;;;;;;;80.55;25.02;;;;;;;-141.50;100.00;63355.56;5011728;28;20057;-83
2024/02/27 07:32:55;;;;;;;66.63;23.23;;;;;;;-141.50;100.00;63355.56;5009353;28;20054;-82
2024/02/27 07:35:22;;;;;;;68.05;24.58;;;;;;;-141.50;100.00;63355.56;5010104;28;20153;-84
2024/02/27 07:37:49;;;;;;;72.85;24.25;;;;;;;-141.50;100.00;63355.56;5000358;28;20062;-84
2024/02/27 07:40:16;;;;;;;63.80;23.23;;;;;;;-141.50;100.00;63355.56;5024397;28;20066;-83
2024/02/27 07:42:42;;;;;;;75.72;25.63;;;;;;;-141.50;100.00;63355.56;5023200;28;20065;-85
2024/02/27 07:45:09;;;;;;;70.20;23.58;;;;;;;-141.50;100.00;63355.56;4991573;28;20488;-85
2024/02/27 07:47:36;;;;;;;58.35;21.65;;;;;;;-141.50;100.00;63355.56;4998199;28;20105;-84
2024/02/27 07:50:05;;;;;;;60.10;22.63;;;;;;;-141.50;100.00;63355.56;4997143;28;20042;-83
2024/02/27 07:52:32;;;;;;;63.92;23.25;;;;;;;-141.50;100.00;63355.56;5017062;28;20065;-82
2024/02/27 07:54:59;;;;;;;58.53;23.00;;;;;;;-141.50;100.00;63355.56;5000793;28;20080;-84
2024/02/27 07:57:26;;;;;;;58.78;22.55;;;;;;;-141.50;100.00;63355.56;5001624;28;20487;-83
2024/02/27 07:59:53;;;;;;;58.55;20.58;;;;;;;-141.50;100.00;63355.56;5020686;28;20060;-83
2024/02/27 08:02:21;;;;;;;58.72;20.77;;;;;;;-141.50;100.00;63355.56;4989049;28;20058;-83
2024/02/27 08:04:48;;;;;;;67.07;22.55;;;;;;;-141.50;100.00;63355.56;5007801;28;20057;-83
2024/02/27 08:07:15;;;;;;;54.88;21.55;;;;;;;-141.50;100.00;63355.56;5001191;28;20049;-83
2024/02/27 08:09:42;;;;;;;55.80;20.83;;;;;;;-141.50;100.00;63355.56;4989199;28;20054;-83
2024/02/27 08:12:10;;;;;;;54.63;21.33;;;;;;;-141.50;100.00;63355.56;4982455;28;20129;-83
2024/02/27 08:14:37;;;;;;;50.60;21.55;;;;;;;-141.50;100.00;63355.56;4999642;28;20134;-82
2024/02/27 08:17:05;;;;;;;56.33;20.75;;;;;;;-141.50;100.00;63355.56;4994682;28;20038;-84
2024/02/27 08:19:33;;;;;;;57.50;21.52;;;;;;;-141.50;100.00;63355.56;5008242;28;20065;-83
2024/02/27 08:22:03;;;;;;;61.70;21.98;;;;;;;-141.50;100.00;63355.56;5008257;28;20050;-83
2024/02/27 08:24:31;;;;;;;58.40;20.67;;;;;;;-141.50;100.00;63355.56;5008801;28;20062;-84
2024/02/27 08:26:59;;;;;;;61.35;20.90;;;;;;;-141.50;100.00;63355.56;5000759;28;20141;-84
2024/02/27 08:29:32;;;;;;;60.58;21.52;;;;;;;-141.50;100.00;63355.56;4991638;28;20080;-83
2024/02/27 08:31:59;;;;;;;63.30;21.15;;;;;;;-141.50;100.00;63355.56;4989788;28;20064;-83
2024/02/27 08:34:25;;;;;;;53.90;20.02;;;;;;;-141.50;100.00;63355.56;4992232;28;20060;-83
2024/02/27 08:36:52;;;;;;;48.70;19.52;;;;;;;-141.50;100.00;63355.56;5009460;28;20065;-85
2024/02/27 08:39:19;;;;;;;53.67;19.65;;;;;;;-141.50;100.00;63355.56;5000927;28;20098;-83
2024/02/27 08:41:47;;;;;;;49.85;19.00;;;;;;;-141.50;100.00;63355.56;5007773;28;20064;-83
2024/02/27 08:44:13;;;;;;;55.40;20.08;;;;;;;-141.50;100.00;63355.56;5008972;28;20541;-83
2024/02/27 08:46:42;;;;;;;53.83;20.02;;;;;;;-141.50;100.00;63355.56;5009932;28;20534;-82
2024/02/27 08:49:09;;;;;;;57.33;20.73;;;;;;;-141.50;100.00;63355.56;5013728;28;20065;-84
2024/02/27 08:51:36;;;;;;;58.15;20.13;;;;;;;-141.50;100.00;63355.56;4999447;28;20061;-85
2024/02/27 08:54:03;;;;;;;51.47;20.42;;;;;;;-141.50;100.00;63355.56;4996496;28;20049;-84
2024/02/27 08:56:30;;;;;;;51.40;20.52;;;;;;;-141.50;100.00;63355.56;5007642;28;20089;-83
2024/02/27 08:58:57;;;;;;;58.72;21.05;;;;;;;-141.50;100.00;63355.56;5013299;28;20058;-84
2024/02/27 09:01:24;;;;;;;55.83;22.55;;;;;;;-141.50;100.00;63355.56;5010103;28;20050;-84
2024/02/27 09:03:50;;;;;;;70.25;23.30;;;;;;;-141.50;100.00;63355.56;5010066;28;20061;-83
2024/02/27 09:06:17;;;;;;;56.00;22.45;;;;;;;-141.50;100.00;63355.56;4984134;28;20172;-82
2024/02/27 09:08:45;;;;;;;58.78;23.23;;;;;;;-141.50;100.00;63355.56;4986532;28;20057;-84
2024/02/27 09:11:12;;;;;;;61.92;22.17;;;;;;;-141.50;100.00;63355.56;5019890;28;20054;-83
2024/02/27 09:13:40;;;;;;;59.38;22.05;;;;;;;-141.50;100.00;63355.56;5019424;28;20054;-82
2024/02/27 09:16:12;;;;;;;49.20;21.33;;;;;;;-141.50;100.00;63355.56;4995115;28;20063;-84
2024/02/27 09:18:45;;;;;;;49.83;20.70;;;;;;;-141.50;100.00;63355.56;4963018;28;20240;-83
2024/02/27 09:21:17;;;;;;;;;;;;;;;-141.50;100.00;63355.56;4965532;28;20050;-83
2024/02/27 09:23:58;;;;;;;50.75;19.35;;;;;;;-141.50;100.00;63355.56;4938641;28;19921;-84
2024/02/27 09:27:00;;;;;;;57.15;21.33;;;;;;;-141.50;100.00;63355.56;4936099;28;20150;-84
2024/02/27 09:29:45;;;;;;;54.38;20.35;;;;;;;-141.50;100.00;63355.56;4984867;28;20117;-84
2024/02/27 09:32:29;;;;;;;47.05;19.27;;;;;;;-141.50;100.00;63355.56;4974873;28;20055;-83
2024/02/27 09:35:03;;;;;;;52.60;19.55;;;;;;;-141.50;100.00;63355.56;4947264;28;20042;-84
2024/02/27 09:37:36;;;;;;;48.33;19.38;;;;;;;-141.50;100.00;63355.56;4979621;28;20069;-82
2024/02/27 09:40:18;;;;;;;48.90;19.15;;;;;;;-141.50;100.00;63355.56;5001708;28;20049;-83
2024/02/27 09:42:51;;;;;;;47.40;18.50;;;;;;;-141.50;100.00;63355.56;4965548;28;20054;-84
2024/02/27 09:45:25;;;;;;;47.45;18.33;;;;;;;-141.50;100.00;63355.56;4994791;28;20046;-84
2024/02/27 09:47:57;;;;;;;54.97;18.75;;;;;;;-141.50;100.00;63355.56;4940404;28;20087;-84
2024/02/27 09:50:28;;;;;;;49.50;17.92;;;;;;;-141.50;100.00;63355.56;4980943;28;20054;-83
2024/02/27 09:52:57;;;;;;;48.72;17.88;;;;;;;-141.50;100.00;63355.56;5014672;28;20054;-83
2024/02/27 09:55:25;;;;;;;50.35;17.88;;;;;;;-141.50;100.00;63355.56;5009614;28;20049;-83
2024/02/27 09:57:53;;;;;;;49.75;18.15;;;;;;;-141.50;100.00;63355.56;4998085;28;20097;-83
2024/02/27 10:00:20;;;;;;;48.65;17.73;;;;;;;-141.50;100.00;63355.56;5017113;28;20054;-83
2024/02/27 10:02:49;;;;;;;46.38;17.55;;;;;;;-141.50;100.00;63355.56;4994735;28;20512;-83
2024/02/27 10:05:19;;;;;;;47.72;17.50;;;;;;;-141.50;100.00;63355.56;5012105;28;20058;-83
2024/02/27 10:07:48;;;;;;;48.05;17.60;;;;;;;-141.50;100.00;63355.56;4993696;28;20060;-82
2024/02/27 10:10:16;;;;;;;54.53;18.20;;;;;;;-141.50;100.00;63355.56;5012945;28;20052;-82
2024/02/27 10:12:43;;;;;;;52.92;17.60;;;;;;;-141.50;100.00;63355.56;4996139;28;20556;-84
2024/02/27 10:15:10;;;;;;;58.97;18.58;;;;;;;-141.50;100.00;63355.56;5013145;28;20097;-83
2024/02/27 10:17:38;;;;;;;59.22;18.48;;;;;;;-141.50;100.00;63355.56;5013349;28;20611;-83
2024/02/27 10:20:10;;;;;;;55.70;18.88;;;;;;;-141.50;100.00;63355.56;4994428;28;20054;-84
2024/02/27 10:22:39;;;;;;;60.33;18.92;;;;;;;-141.50;100.00;63355.56;5003733;28;20049;-83
2024/02/27 10:25:11;;;;;;;49.85;17.10;;;;;;;-141.50;100.00;63355.56;4975684;28;20070;-84
2024/02/27 10:27:41;;;;;;;46.13;17.92;;;;;;;-141.50;100.00;63355.56;5009896;28;20116;-83
2024/02/27 10:30:10;;;;;;;51.22;17.77;;;;;;;-141.50;100.00;63355.56;4995130;28;20391;-84
2024/02/27 10:32:41;;;;;;;60.90;17.42;;;;;;;-141.50;100.00;63355.56;5014853;28;20476;-83
2024/02/27 10:35:10;;;;;;;55.55;17.75;;;;;;;-141.50;100.00;63355.56;5010338;28;20073;-82
2024/02/27 10:37:38;;;;;;;57.03;17.60;;;;;;;-141.50;100.00;63355.56;5002369;28;20061;-84
2024/02/27 10:40:07;;;;;;;50.92;18.02;;;;;;;-141.50;100.00;63355.56;4992288;28;20068;-82
2024/02/27 10:42:36;;;;;;;56.53;18.27;;;;;;;-141.50;100.00;63355.56;5017702;28;20069;-83
2024/02/27 10:45:05;;;;;;;59.10;17.92;;;;;;;-141.50;100.00;63355.56;4998208;28;20050;-83
2024/02/27 10:47:33;;;;;;;43.65;16.88;;;;;;;-141.50;100.00;63355.56;4988814;28;20057;-82
2024/02/27 10:50:04;;;;;;;54.40;17.33;;;;;;;-141.50;100.00;63355.56;4994891;28;20062;-84
2024/02/27 10:52:34;;;;;;;59.83;17.30;;;;;;;-141.50;100.00;63355.56;5014036;28;20479;-83
2024/02/27 10:55:02;;;;;;;52.65;17.85;;;;;;;-141.50;100.00;63355.56;4999415;28;20041;-83
2024/02/27 10:57:32;;;;;;;52.97;17.70;;;;;;;-141.50;100.00;63355.56;4993117;28;20323;-83
2024/02/27 11:00:02;;;;;;;53.50;18.58;;;;;;;-141.50;100.00;63355.56;4999902;28;20057;-84
2024/02/27 11:02:33;;;;;;;60.30;17.65;;;;;;;-141.50;100.00;63355.56;4982338;28;20134;-83
2024/02/27 11:05:03;;;;;;;49.92;17.05;;;;;;;-141.50;100.00;63355.56;5006376;28;20077;-82